Airfield :
LOGIN :

Register | Disclaimer

   EN    FR    IT 

 










Legend :    VFR   Marginal VFR   IFR   Intensive IFR   Very Intensive IFR
Visi :
Ceiling :
>= 8 km
>= 3000ft
5 to 8 km
1000 to 3000 ft
1500m to 5 km
500 to 1000 ft
800 to 1500m
200 to 500 ft
< 800m
< 200 ft
Symbols :   Thunderstorms  Fog  Heavy snow  Heavy precipitations  Wind > 20 kt
SIGMETs :     Misc.  Thunderstorms  Icing  Turbulence  Mountain Waves  Volcanic Ashes






- Airport Elevation : 55 ft


EGNO - Warton Preston

CURRENT METAR :
  • 051850Z 23018KT 9999 -SHRA FEW021 10/09 Q1004

EXPIRED METARs :
  • 051820Z 23014G24KT 9999 FEW019 SCT046 10/09 Q1004
  • 051750Z 23015KT 9999 BKN020 10/08 Q1004
  • 051720Z 22014KT 9999 BKN020 10/08 Q1005
  • 051650Z 23017KT 9999 BKN021 11/08 Q1005

Expired Forecast.
ATIS : +44 1772 856 060



MET'MAP, your aeronautical weather chart ! - Copyright ORBIFLY December 2007 - Disclaimer

ORBIFLY MET'MAP TEAM :

Programming & Development : Alexandra Zaïnal
Concept & original design : Baudouin d'Aumeries
Assistance for programming : Marc-Olivier Méhu
Technical & hardware support : Manuel Goepfert

Contact : metmap@orbifly.com




SOURCES & CREDITS :

   NOAA